createdAt,value
2018-06-01T00:00:11.175Z,28.85
2018-06-01T00:01:16.065Z,30.20
2018-06-01T00:02:20.164Z,24.63
2018-06-01T00:03:24.264Z,28.87
2018-06-01T00:04:28.374Z,26.95
2018-06-01T00:05:32.774Z,27.40
2018-06-01T00:06:36.980Z,30.33
2018-06-01T00:07:41.068Z,27.87
2018-06-01T00:08:45.378Z,25.15
2018-06-01T00:09:49.725Z,29.73
2018-06-01T00:10:54.838Z,28.87
2018-06-01T00:11:59.136Z,29.23
2018-06-01T00:13:03.491Z,30.33
2018-06-01T00:14:07.823Z,24.42
2018-06-01T00:15:12.094Z,31.40
2018-06-01T00:16:16.386Z,26.10
2018-06-01T00:17:21.485Z,25.27
2018-06-01T00:18:25.597Z,26.15
2018-06-01T00:19:29.638Z,25.60
2018-06-01T00:20:33.735Z,28.35
2018-06-01T00:21:37.868Z,30.02
2018-06-01T00:22:41.927Z,28.15
2018-06-01T00:23:46.047Z,29.92
2018-06-01T00:24:50.446Z,26.00
2018-06-01T00:25:55.290Z,30.85
2018-06-01T00:26:59.375Z,28.77
2018-06-01T00:28:03.463Z,28.40
2018-06-01T00:29:08.282Z,25.73
2018-06-01T00:30:13.387Z,28.33
2018-06-01T00:31:17.500Z,27.00
2018-06-01T00:32:22.342Z,26.23
2018-06-01T00:33:26.413Z,30.55
2018-06-01T00:34:30.500Z,29.25
2018-06-01T00:35:34.594Z,26.70
2018-06-01T00:36:38.702Z,26.55
2018-06-01T00:37:42.783Z,33.22
2018-06-01T00:38:46.864Z,25.45
2018-06-01T00:39:51.694Z,27.30
2018-06-01T00:40:55.791Z,27.10
2018-06-01T00:42:00.031Z,29.50
2018-06-01T00:43:05.246Z,27.58
2018-06-01T00:44:09.376Z,30.12
2018-06-01T00:45:13.419Z,30.05
2018-06-01T00:46:17.519Z,32.55
2018-06-01T00:47:21.571Z,28.58
2018-06-01T00:48:25.623Z,30.33
2018-06-01T00:49:30.038Z,38.88
2018-06-01T00:50:34.213Z,30.25
2018-06-01T00:51:38.475Z,31.15
2018-06-01T00:52:42.777Z,27.60
2018-06-01T00:53:47.148Z,27.08
2018-06-01T00:55:01.294Z,28.20
2018-06-01T00:56:05.645Z,28.10
2018-06-01T00:57:09.967Z,33.67
2018-06-01T00:58:14.254Z,27.48
2018-06-01T00:59:18.545Z,28.30
2018-06-01T01:00:22.930Z,31.23
2018-06-01T01:01:26.978Z,27.85
2018-06-01T01:02:31.108Z,33.25
2018-06-01T01:03:35.180Z,26.87
2018-06-01T01:04:39.590Z,30.20
2018-06-01T01:05:43.882Z,33.38
2018-06-01T01:06:48.178Z,31.25
2018-06-01T01:07:52.476Z,36.20
2018-06-01T01:08:56.785Z,30.70
2018-06-01T01:10:01.099Z,34.90
2018-06-01T01:11:05.397Z,29.80
2018-06-01T01:12:09.697Z,28.00
2018-06-01T01:13:14.033Z,35.65
2018-06-01T01:14:18.451Z,29.17
2018-06-01T01:15:22.754Z,35.90
2018-06-01T01:16:27.175Z,28.02
2018-06-01T01:17:31.511Z,29.80
2018-06-01T01:18:35.818Z,31.27
2018-06-01T01:19:40.162Z,38.05
2018-06-01T01:20:44.462Z,32.95
2018-06-01T01:21:49.303Z,35.97
2018-06-01T01:22:53.633Z,35.55
2018-06-01T01:23:58.324Z,38.22
2018-06-01T01:25:02.918Z,34.92
2018-06-01T01:26:08.094Z,31.80
2018-06-01T01:27:12.564Z,36.83
2018-06-01T01:28:16.894Z,32.72
2018-06-01T01:29:21.191Z,32.55
2018-06-01T01:30:25.512Z,30.73
2018-06-01T01:31:29.897Z,36.53
2018-06-01T01:32:34.407Z,31.12
2018-06-01T01:33:38.451Z,35.90
2018-06-01T01:34:42.515Z,39.47
2018-06-01T01:35:46.608Z,35.15
2018-06-01T01:36:50.663Z,38.80
2018-06-01T01:37:54.736Z,36.45
2018-06-01T01:38:58.847Z,37.25
2018-06-01T01:40:02.990Z,39.67
2018-06-01T01:41:07.308Z,33.22
2018-06-01T01:42:12.604Z,28.87
2018-06-01T01:43:16.924Z,31.42
2018-06-01T01:44:21.303Z,32.60
2018-06-01T01:45:25.587Z,39.42
2018-06-01T01:46:30.022Z,33.78
2018-06-01T01:47:34.336Z,31.55
2018-06-01T01:48:38.611Z,33.58
2018-06-01T01:49:43.112Z,37.53
2018-06-01T01:50:48.132Z,36.40
2018-06-01T01:51:52.211Z,31.42
2018-06-01T01:52:56.318Z,35.22
2018-06-01T01:54:00.464Z,36.17
2018-06-01T01:55:04.553Z,31.35
2018-06-01T01:56:08.644Z,31.33
2018-06-01T01:57:12.744Z,31.10
2018-06-01T01:58:17.575Z,31.35
2018-06-01T01:59:21.964Z,35.38
2018-06-01T02:00:27.124Z,37.95
2018-06-01T02:01:31.418Z,39.50
2018-06-01T02:02:35.724Z,39.22
2018-06-01T02:03:40.033Z,33.55
2018-06-01T02:04:44.323Z,34.78
2018-06-01T02:05:49.446Z,36.05
2018-06-01T02:06:54.562Z,33.35
2018-06-01T02:07:58.957Z,31.50
2018-06-01T02:09:03.440Z,37.45
2018-06-01T02:10:07.754Z,33.25
2018-06-01T02:11:12.055Z,33.70
2018-06-01T02:12:16.383Z,36.83
2018-06-01T02:13:20.698Z,37.25
2018-06-01T02:14:25.013Z,35.33
2018-06-01T02:15:29.495Z,34.85
2018-06-01T02:16:33.838Z,38.05
2018-06-01T02:17:38.212Z,36.83
2018-06-01T02:18:42.831Z,33.97
2018-06-01T02:19:47.124Z,31.92
2018-06-01T02:20:51.425Z,34.45
2018-06-01T02:21:55.744Z,36.67
2018-06-01T02:23:00.070Z,32.28
2018-06-01T02:24:04.371Z,45.00
2018-06-01T02:25:08.964Z,32.63
2018-06-01T02:26:13.651Z,35.20
2018-06-01T02:27:18.792Z,34.00
2018-06-01T02:28:23.134Z,37.85
2018-06-01T02:29:27.440Z,34.92
2018-06-01T02:30:31.762Z,33.10
2018-06-01T02:31:36.084Z,34.05
2018-06-01T02:32:40.648Z,36.78
2018-06-01T02:33:44.954Z,32.17
2018-06-01T02:36:45.943Z,40.53
2018-06-01T02:37:51.179Z,33.25
2018-06-01T02:38:55.491Z,38.03
2018-06-01T02:40:00.627Z,41.72
2018-06-01T02:41:05.780Z,43.30
2018-06-01T02:42:10.108Z,37.25
2018-06-01T02:43:14.450Z,38.47
2018-06-01T02:44:19.044Z,36.40
2018-06-01T02:45:23.358Z,35.92
2018-06-01T02:46:27.467Z,30.73
2018-06-01T02:47:31.549Z,35.50
2018-06-01T02:48:35.626Z,41.85
2018-06-01T02:49:40.063Z,33.22
2018-06-01T02:50:44.119Z,48.17
2018-06-01T02:51:48.970Z,36.08
2018-06-01T02:52:53.400Z,34.33
2018-06-01T02:53:57.499Z,38.78
2018-06-01T02:55:01.581Z,33.13
2018-06-01T02:56:05.719Z,37.60
2018-06-01T02:57:09.819Z,32.78
2018-06-01T02:58:13.914Z,45.85
2018-06-01T02:59:18.025Z,35.42
2018-06-01T03:00:22.312Z,36.85
2018-06-01T03:01:26.447Z,29.95
2018-06-01T03:02:30.533Z,31.48
2018-06-01T03:03:35.658Z,33.70
2018-06-01T03:04:40.011Z,33.53
2018-06-01T03:05:44.107Z,30.27
2018-06-01T03:06:57.870Z,34.83
2018-06-01T03:08:01.943Z,38.63
2018-06-01T03:09:06.522Z,32.67
2018-06-01T03:10:10.622Z,33.40
2018-06-01T03:11:14.688Z,30.17
2018-06-01T03:12:18.992Z,32.30
2018-06-01T03:13:23.328Z,34.13
2018-06-01T03:14:28.055Z,30.98
2018-06-01T03:15:32.444Z,32.88
2018-06-01T03:16:36.767Z,33.55
2018-06-01T03:17:41.103Z,37.33
2018-06-01T03:18:46.219Z,34.17
2018-06-01T03:19:50.677Z,38.42
2018-06-01T03:20:56.230Z,32.65
2018-06-01T03:22:00.706Z,29.52
2018-06-01T03:23:04.790Z,29.73
2018-06-01T03:24:09.675Z,30.48
2018-06-01T03:25:13.711Z,37.63
2018-06-01T03:26:18.556Z,30.98
2018-06-01T03:27:22.748Z,32.78
2018-06-01T03:28:27.604Z,35.88
2018-06-01T03:29:31.711Z,33.65
2018-06-01T03:30:36.028Z,37.10
2018-06-01T03:31:40.108Z,41.55
2018-06-01T03:32:44.271Z,40.53
2018-06-01T03:33:49.115Z,34.78
2018-06-01T03:34:53.202Z,38.95
2018-06-01T03:35:58.263Z,39.33
2018-06-01T03:37:02.611Z,35.10
2018-06-01T03:38:08.807Z,32.30
2018-06-01T03:39:13.453Z,38.22
2018-06-01T03:40:17.813Z,33.25
2018-06-01T03:41:22.215Z,26.80
2018-06-01T03:42:27.363Z,24.60
2018-06-01T03:43:31.678Z,26.35
2018-06-01T03:44:36.015Z,28.90
2018-06-01T03:45:40.337Z,23.65
2018-06-01T03:46:45.822Z,29.90
2018-06-01T03:47:50.164Z,33.90
2018-06-01T03:48:54.507Z,26.65
2018-06-01T03:49:58.819Z,27.60
2018-06-01T03:51:03.911Z,23.60
2018-06-01T03:52:09.037Z,22.48
2018-06-01T03:53:13.372Z,24.63
2018-06-01T03:54:17.678Z,24.90
2018-06-01T03:55:22.869Z,24.60
2018-06-01T03:56:27.176Z,22.50
2018-06-01T03:57:31.283Z,18.00
2018-06-01T03:58:35.350Z,18.23
2018-06-01T03:59:39.435Z,12.18
2018-06-01T04:00:44.379Z,21.58
2018-06-01T04:01:48.628Z,17.73
2018-06-01T04:02:53.021Z,18.17
2018-06-01T04:03:57.140Z,32.95
2018-06-01T04:05:01.369Z,29.30
2018-06-01T04:06:06.275Z,19.37
2018-06-01T04:07:10.434Z,13.35
2018-06-01T04:08:14.655Z,22.90
2018-06-01T04:09:19.195Z,10.07
2018-06-01T04:10:23.398Z,13.60
2018-06-01T04:11:27.615Z,13.70
2018-06-01T04:12:31.823Z,13.32
2018-06-01T04:13:35.866Z,9.50
2018-06-01T04:14:40.255Z,11.25
2018-06-01T04:15:45.296Z,8.35
2018-06-01T04:16:49.624Z,11.45
2018-06-01T04:17:56.757Z,7.40
2018-06-01T04:19:01.845Z,12.37
2018-06-01T04:20:06.931Z,9.32
2018-06-01T04:21:11.333Z,21.33
2018-06-01T04:22:16.496Z,20.83
2018-06-01T04:23:21.127Z,16.55
2018-06-01T04:24:25.461Z,51.10
2018-06-01T04:25:30.602Z,13.25
2018-06-01T04:26:34.944Z,18.25
2018-06-01T04:27:39.616Z,11.55
2018-06-01T04:28:44.659Z,12.60
2018-06-01T04:29:49.019Z,17.37
2018-06-01T04:30:53.344Z,15.70
2018-06-01T04:31:57.643Z,16.65
2018-06-01T04:33:02.763Z,15.75
2018-06-01T04:34:07.079Z,12.73
2018-06-01T04:35:11.472Z,12.63
2018-06-01T04:36:15.937Z,10.32
2018-06-01T04:37:20.303Z,11.95
2018-06-01T04:38:24.728Z,17.23
2018-06-01T04:39:29.792Z,13.90
2018-06-01T04:40:34.159Z,13.15
2018-06-01T04:41:40.489Z,15.20
2018-06-01T04:42:44.843Z,13.25
2018-06-01T04:43:49.185Z,11.63
2018-06-01T04:44:53.550Z,14.07
2018-06-01T04:45:57.879Z,15.18
2018-06-01T04:47:02.240Z,15.82
2018-06-01T04:48:06.596Z,13.98
2018-06-01T04:49:10.947Z,14.02
2018-06-01T04:50:16.055Z,12.52
2018-06-01T04:51:20.437Z,14.50
2018-06-01T04:52:24.855Z,15.13
2018-06-01T04:53:29.055Z,17.33
2018-06-01T04:54:33.191Z,15.80
2018-06-01T04:55:37.467Z,16.45
2018-06-01T04:56:41.614Z,17.12
2018-06-01T04:57:45.724Z,19.27
2018-06-01T04:58:49.819Z,24.25
2018-06-01T04:59:53.898Z,18.67
2018-06-01T05:00:58.027Z,17.62
2018-06-01T05:02:02.430Z,16.58
2018-06-01T05:03:06.765Z,23.33
2018-06-01T05:04:11.828Z,26.05
2018-06-01T05:05:16.291Z,24.63
2018-06-01T05:06:20.655Z,25.25
2018-06-01T05:07:24.991Z,29.83
2018-06-01T05:08:29.331Z,28.27
2018-06-01T05:09:34.415Z,23.20
2018-06-01T05:10:38.778Z,22.23
2018-06-01T05:11:43.144Z,25.08
2018-06-01T05:12:47.590Z,33.15
2018-06-01T05:13:53.204Z,28.25
2018-06-01T05:14:57.694Z,28.00
2018-06-01T05:16:02.019Z,28.35
2018-06-01T05:17:06.364Z,25.55
2018-06-01T05:18:10.711Z,27.55
2018-06-01T05:19:15.031Z,30.17
2018-06-01T05:20:19.481Z,26.83
2018-06-01T05:21:24.337Z,27.60
2018-06-01T05:22:28.435Z,30.37
2018-06-01T05:23:32.515Z,29.75
2018-06-01T05:24:36.642Z,28.67
2018-06-01T05:25:40.765Z,28.33
2018-06-01T05:26:45.725Z,26.85
2018-06-01T05:27:50.590Z,23.87
2018-06-01T05:28:54.800Z,28.52
2018-06-01T05:29:58.916Z,24.30
2018-06-01T05:31:03.321Z,19.33
2018-06-01T05:32:07.737Z,23.80
2018-06-01T05:33:12.055Z,20.27
2018-06-01T05:34:16.470Z,23.67
2018-06-01T05:35:20.867Z,20.67
2018-06-01T05:36:25.203Z,21.30
2018-06-01T05:37:30.292Z,26.37
2018-06-01T05:38:34.639Z,21.70
2018-06-01T05:39:39.556Z,20.70
2018-06-01T05:40:44.452Z,22.37
2018-06-01T05:41:48.562Z,21.92
2018-06-01T05:42:52.781Z,28.92
2018-06-01T05:43:56.856Z,22.35
2018-06-01T05:45:01.212Z,23.87
2018-06-01T05:46:06.104Z,26.62
2018-06-01T05:47:10.284Z,31.30
2018-06-01T05:48:14.454Z,26.23
2018-06-01T05:49:18.570Z,30.88
2018-06-01T05:50:22.771Z,35.15
2018-06-01T05:51:26.941Z,31.95
2018-06-01T05:52:31.964Z,29.55
2018-06-01T05:53:37.152Z,40.20
2018-06-01T05:54:41.268Z,37.22
2018-06-01T05:55:45.466Z,37.17
2018-06-01T05:56:49.637Z,44.70
2018-06-01T05:57:53.794Z,51.03
2018-06-01T05:58:57.950Z,43.85
2018-06-01T06:00:02.658Z,46.33
2018-06-01T06:01:07.134Z,46.10
2018-06-01T06:02:12.230Z,50.83
2018-06-01T06:03:16.593Z,52.67
2018-06-01T06:04:21.127Z,49.15
2018-06-01T06:05:25.488Z,51.88
2018-06-01T06:06:30.871Z,53.72
2018-06-01T06:07:35.285Z,56.42
2018-06-01T06:08:39.730Z,55.70
2018-06-01T06:09:43.978Z,55.67
2018-06-01T06:10:48.199Z,54.08
2018-06-01T06:11:52.330Z,60.58
2018-06-01T06:12:56.749Z,57.92
2018-06-01T06:14:00.831Z,66.93
2018-06-01T06:15:05.054Z,60.53
2018-06-01T06:16:09.171Z,62.58
2018-06-01T06:17:14.485Z,65.97
2018-06-01T06:18:18.827Z,58.75
2018-06-01T06:19:24.236Z,69.85
2018-06-01T06:20:28.581Z,72.55
2018-06-01T06:21:32.755Z,63.58
2018-06-01T06:22:36.911Z,71.28
2018-06-01T06:23:41.107Z,68.28
2018-06-01T06:24:45.188Z,63.55
2018-06-01T06:25:50.320Z,71.82
2018-06-01T06:26:54.419Z,69.43
2018-06-01T06:27:58.525Z,63.58
2018-06-01T06:29:02.757Z,73.22
2018-06-01T06:30:06.879Z,72.70
2018-06-01T06:31:11.176Z,85.10
2018-06-01T06:32:15.322Z,75.43
2018-06-01T06:33:20.465Z,71.32
2018-06-01T06:34:24.682Z,69.68
2018-06-01T06:35:28.859Z,64.32
2018-06-01T06:36:33.851Z,66.22
2018-06-01T06:37:38.024Z,60.38
2018-06-01T06:38:42.110Z,67.25
2018-06-01T06:39:46.289Z,63.42
2018-06-01T06:40:50.429Z,66.35
2018-06-01T06:41:54.550Z,63.97
2018-06-01T06:42:58.650Z,67.22
2018-06-01T06:44:02.730Z,62.20
2018-06-01T06:45:07.891Z,64.97
2018-06-01T06:46:12.248Z,61.35
2018-06-01T06:47:16.655Z,60.78
2018-06-01T06:48:21.758Z,56.50
2018-06-01T06:49:26.210Z,65.80
2018-06-01T06:50:30.667Z,71.40
2018-06-01T06:51:35.056Z,69.00
2018-06-01T06:52:39.431Z,63.95
2018-06-01T06:53:43.755Z,68.18
2018-06-01T06:54:48.868Z,80.90
2018-06-01T06:55:53.212Z,68.70
2018-06-01T06:56:57.531Z,64.00
2018-06-01T06:58:01.938Z,60.78
2018-06-01T06:59:06.333Z,72.97
2018-06-01T07:00:11.364Z,75.97
2018-06-01T07:01:15.492Z,67.97
2018-06-01T07:02:19.623Z,66.65
2018-06-01T07:03:24.172Z,73.00
2018-06-01T07:04:28.380Z,58.17
2018-06-01T07:05:32.511Z,62.40
2018-06-01T07:06:36.651Z,65.32
2018-06-01T07:07:41.500Z,61.20
2018-06-01T07:08:45.923Z,61.53
2018-06-01T07:09:50.109Z,60.95
2018-06-01T07:10:54.223Z,60.42
2018-06-01T07:11:58.327Z,60.50
2018-06-01T07:13:02.632Z,61.78
2018-06-01T07:14:06.815Z,65.03
2018-06-01T07:15:10.960Z,62.47
2018-06-01T07:16:15.162Z,55.22
2018-06-01T07:17:19.335Z,57.22
2018-06-01T07:18:23.610Z,61.55
2018-06-01T07:19:28.656Z,62.05
2018-06-01T07:20:33.055Z,58.08
2018-06-01T07:21:38.499Z,57.58
2018-06-01T07:22:42.905Z,57.85
2018-06-01T07:23:47.242Z,55.65
2018-06-01T07:24:51.562Z,58.17
2018-06-01T07:25:56.795Z,64.50
2018-06-01T07:27:01.215Z,58.35
2018-06-01T07:28:05.846Z,56.03
2018-06-01T07:29:10.965Z,58.50
2018-06-01T07:30:16.111Z,60.33
2018-06-01T07:31:21.283Z,62.80
2018-06-01T07:32:25.763Z,63.97
2018-06-01T07:33:30.868Z,66.78
2018-06-01T07:34:36.260Z,58.22
2018-06-01T07:35:40.637Z,61.40
2018-06-01T07:36:44.983Z,64.68
2018-06-01T07:37:49.467Z,62.40
2018-06-01T07:38:53.805Z,68.78
2018-06-01T07:39:58.171Z,60.58
2018-06-01T07:41:02.755Z,64.40
2018-06-01T07:42:06.847Z,61.17
2018-06-01T07:43:10.935Z,59.40
2018-06-01T07:44:15.031Z,58.90
2018-06-01T07:45:19.173Z,65.75
2018-06-01T07:46:24.239Z,67.07
2018-06-01T07:47:28.699Z,71.20
2018-06-01T07:48:32.819Z,74.30
2018-06-01T07:49:37.718Z,66.47
2018-06-01T07:50:42.887Z,62.67
2018-06-01T07:51:47.203Z,63.38
2018-06-01T07:52:51.519Z,66.10
2018-06-01T07:53:55.887Z,65.40
2018-06-01T07:55:00.813Z,59.55
2018-06-01T07:56:05.696Z,60.12
2018-06-01T07:57:09.831Z,64.68
2018-06-01T07:58:14.650Z,63.72
2018-06-01T07:59:19.467Z,61.83
2018-06-01T08:00:24.734Z,56.97
2018-06-01T08:01:29.068Z,61.15
2018-06-01T08:02:33.436Z,57.67
2018-06-01T08:03:37.813Z,57.80
2018-06-01T08:04:42.136Z,53.63
2018-06-01T08:05:47.575Z,53.90
2018-06-01T08:06:52.655Z,56.08
2018-06-01T08:07:57.776Z,53.92
2018-06-01T08:09:02.176Z,54.40
2018-06-01T08:10:06.629Z,58.70
2018-06-01T08:11:11.825Z,56.50
2018-06-01T08:12:16.155Z,52.80
2018-06-01T08:13:20.524Z,58.38
2018-06-01T08:14:24.882Z,58.87
2018-06-01T08:15:29.981Z,49.53
2018-06-01T08:16:34.327Z,56.28
2018-06-01T08:17:39.682Z,54.08
2018-06-01T08:18:44.046Z,65.30
2018-06-01T08:19:48.369Z,56.72
2018-06-01T08:20:52.522Z,53.75
2018-06-01T08:21:56.616Z,55.58
2018-06-01T08:23:00.691Z,52.95
2018-06-01T08:24:05.882Z,56.42
2018-06-01T08:25:09.975Z,59.72
2018-06-01T08:26:14.092Z,54.55
2018-06-01T08:27:18.307Z,57.75
2018-06-01T08:28:22.411Z,57.00
2018-06-01T08:29:27.415Z,58.22
2018-06-01T08:30:31.635Z,56.70
2018-06-01T08:31:35.743Z,60.33
2018-06-01T08:32:40.629Z,60.33
2018-06-01T08:33:44.764Z,52.53
2018-06-01T08:34:49.663Z,52.35
2018-06-01T08:35:53.737Z,43.38
2018-06-01T08:36:57.850Z,41.78
2018-06-01T08:38:01.991Z,43.85
2018-06-01T08:39:07.152Z,42.78
2018-06-01T08:40:11.259Z,38.05
2018-06-01T08:41:15.335Z,36.25
2018-06-01T08:42:20.571Z,39.33
2018-06-01T08:43:24.933Z,38.00
2018-06-01T08:44:29.011Z,35.17
2018-06-01T08:45:33.297Z,29.92
2018-06-01T08:46:38.330Z,31.65
2018-06-01T08:47:42.504Z,27.70
2018-06-01T08:48:46.718Z,26.65
2018-06-01T08:49:51.631Z,23.55
2018-06-01T08:50:55.893Z,24.50
2018-06-01T08:52:00.000Z,31.37
2018-06-01T08:53:04.143Z,23.50
2018-06-01T08:54:08.287Z,21.98
2018-06-01T08:55:12.410Z,24.90
2018-06-01T08:56:16.800Z,31.20
2018-06-01T08:57:20.931Z,22.13
2018-06-01T08:58:25.107Z,23.08
2018-06-01T08:59:29.460Z,22.13
2018-06-01T09:00:33.862Z,25.62
2018-06-01T09:01:38.303Z,21.98
2018-06-01T09:02:43.402Z,24.02
2018-06-01T09:03:47.735Z,24.63
2018-06-01T09:04:52.854Z,24.25
2018-06-01T09:05:57.226Z,27.62
2018-06-01T09:07:01.555Z,20.92
2018-06-01T09:08:05.875Z,26.50
2018-06-01T09:09:10.985Z,24.35
2018-06-01T09:10:16.180Z,22.55
2018-06-01T09:11:21.274Z,31.58
2018-06-01T09:12:26.394Z,26.42
2018-06-01T09:13:31.541Z,26.35
2018-06-01T09:14:35.909Z,26.27
2018-06-01T09:15:40.343Z,25.62
2018-06-01T09:16:44.807Z,24.50
2018-06-01T09:17:49.225Z,27.65
2018-06-01T09:18:53.578Z,23.55
2018-06-01T09:19:58.224Z,22.25
2018-06-01T09:21:02.555Z,24.15
2018-06-01T09:22:06.949Z,23.48
2018-06-01T09:23:11.306Z,22.42
2018-06-01T09:24:16.479Z,30.45
2018-06-01T09:25:20.912Z,30.48
2018-06-01T09:26:25.555Z,25.75
2018-06-01T09:27:30.862Z,25.00
2018-06-01T09:28:35.214Z,31.58
2018-06-01T09:29:39.494Z,37.05
2018-06-01T09:30:43.588Z,28.92
2018-06-01T09:31:47.709Z,24.70
2018-06-01T09:32:52.925Z,28.92
2018-06-01T09:33:57.020Z,25.58
2018-06-01T09:35:01.130Z,33.78
2018-06-01T09:36:05.241Z,27.73
2018-06-01T09:37:09.467Z,26.50
2018-06-01T09:38:14.344Z,24.92
2018-06-01T09:39:19.031Z,33.88
2018-06-01T09:40:23.406Z,23.30
2018-06-01T09:41:27.803Z,26.20
2018-06-01T09:42:33.103Z,21.98
2018-06-01T09:43:37.491Z,31.33
2018-06-01T09:44:41.867Z,22.55
2018-06-01T09:45:47.294Z,29.75
2018-06-01T09:46:52.407Z,22.10
2018-06-01T09:47:57.524Z,24.65
2018-06-01T09:49:02.449Z,25.60
2018-06-01T09:50:06.564Z,26.98
2018-06-01T09:51:11.436Z,20.45
2018-06-01T09:52:16.593Z,23.30
2018-06-01T09:53:20.707Z,22.87
2018-06-01T09:54:24.842Z,20.55
2018-06-01T09:55:29.216Z,24.67
2018-06-01T09:56:33.380Z,16.10
2018-06-01T09:57:37.498Z,18.15
2018-06-01T09:58:41.943Z,17.42
2018-06-01T09:59:46.899Z,22.33
2018-06-01T10:00:55.196Z,22.02
2018-06-01T10:01:59.277Z,19.48
2018-06-01T10:03:04.103Z,21.48
2018-06-01T10:04:09.292Z,34.08
2018-06-01T10:05:13.614Z,72.45
2018-06-01T10:06:17.929Z,18.40
2018-06-01T10:07:23.017Z,25.23
2018-06-01T10:08:27.378Z,20.23
2018-06-01T10:09:32.511Z,18.90
2018-06-01T10:10:37.166Z,20.88
2018-06-01T10:11:41.512Z,107.12
2018-06-01T10:12:45.867Z,31.30
2018-06-01T10:13:50.210Z,18.35
2018-06-01T10:14:54.593Z,17.65
2018-06-01T10:15:58.987Z,19.20
2018-06-01T10:17:03.366Z,20.12
2018-06-01T10:18:08.242Z,20.92
2018-06-01T10:19:12.417Z,24.77
2018-06-01T10:20:16.588Z,19.90
2018-06-01T10:21:21.483Z,30.92
2018-06-01T10:22:25.540Z,23.83
2018-06-01T10:23:29.662Z,21.15
2018-06-01T10:24:33.760Z,17.23
2018-06-01T10:25:37.930Z,19.52
2018-06-01T10:26:42.802Z,19.30
2018-06-01T10:27:47.177Z,18.75
2018-06-01T10:28:51.577Z,18.58
2018-06-01T10:29:55.999Z,26.02
2018-06-01T10:31:00.412Z,27.87
2018-06-01T10:32:05.561Z,20.30
2018-06-01T10:33:09.939Z,18.77
2018-06-01T10:34:14.388Z,18.35
2018-06-01T10:35:18.759Z,24.95
2018-06-01T10:36:23.075Z,20.95
2018-06-01T10:37:27.471Z,20.65
2018-06-01T10:38:31.835Z,24.63
2018-06-01T10:39:36.250Z,19.67
2018-06-01T10:40:40.607Z,20.62
2018-06-01T10:41:44.968Z,22.80
2018-06-01T10:42:49.303Z,20.77
2018-06-01T10:43:54.453Z,22.42
2018-06-01T10:44:58.922Z,17.70
2018-06-01T10:46:03.947Z,19.30
2018-06-01T10:47:08.096Z,20.88
2018-06-01T10:48:12.223Z,18.00
2018-06-01T10:49:16.477Z,17.35
2018-06-01T10:50:21.404Z,18.67
2018-06-01T10:51:26.560Z,21.00
2018-06-01T10:52:30.963Z,22.40
2018-06-01T10:53:36.096Z,23.90
2018-06-01T10:54:40.690Z,22.80
2018-06-01T10:55:45.060Z,26.70
2018-06-01T10:56:49.385Z,25.02
2018-06-01T10:57:54.528Z,23.48
2018-06-01T10:58:58.847Z,27.25
2018-06-01T11:00:03.495Z,27.55
2018-06-01T11:01:07.845Z,29.08
2018-06-01T11:02:12.975Z,28.92
2018-06-01T11:03:18.057Z,29.02
2018-06-01T11:04:22.367Z,29.15
2018-06-01T11:05:27.000Z,29.95
2018-06-01T11:06:31.353Z,26.33
2018-06-01T11:07:35.687Z,27.98
2018-06-01T11:08:40.028Z,25.98
2018-06-01T11:09:44.373Z,22.55
2018-06-01T11:10:48.733Z,23.60
2018-06-01T11:11:53.098Z,21.90
2018-06-01T11:12:57.427Z,18.75
2018-06-01T11:14:01.804Z,17.33
2018-06-01T11:15:06.193Z,18.67
2018-06-01T11:16:10.587Z,15.95
2018-06-01T11:17:14.895Z,14.27
2018-06-01T11:18:19.539Z,13.70
2018-06-01T11:19:24.702Z,10.45
2018-06-01T11:20:29.121Z,10.43
2018-06-01T11:21:33.546Z,9.85
2018-06-01T11:22:37.987Z,11.70
2018-06-01T11:23:42.949Z,11.88
2018-06-01T11:24:47.490Z,12.93
2018-06-01T11:25:51.564Z,11.12
2018-06-01T11:26:55.683Z,8.30
2018-06-01T11:27:59.829Z,8.75
2018-06-01T11:29:04.724Z,9.88
2018-06-01T11:30:09.087Z,7.90
2018-06-01T11:31:13.467Z,12.50
2018-06-01T11:32:18.341Z,9.10
2018-06-01T11:33:22.479Z,10.15
2018-06-01T11:34:27.329Z,11.75
2018-06-01T11:35:31.583Z,9.50
2018-06-01T11:36:35.819Z,11.48
2018-06-01T11:37:40.929Z,10.88
2018-06-01T11:38:45.028Z,10.10
2018-06-01T11:39:49.144Z,7.55
2018-06-01T11:40:53.494Z,9.45
2018-06-01T11:41:57.601Z,7.72
2018-06-01T11:43:01.718Z,8.15
2018-06-01T11:44:06.145Z,8.43
2018-06-01T11:45:10.239Z,8.98
2018-06-01T11:46:14.333Z,7.82
2018-06-01T11:47:18.472Z,8.43
2018-06-01T11:48:22.651Z,6.90
2018-06-01T11:49:26.845Z,8.45
2018-06-01T11:50:32.197Z,14.52
2018-06-01T11:51:36.360Z,8.02
2018-06-01T11:52:40.490Z,8.20
2018-06-01T11:53:44.627Z,7.75
2018-06-01T11:54:48.787Z,8.57
2018-06-01T11:55:52.872Z,11.57
2018-06-01T11:56:56.987Z,7.57
2018-06-01T11:58:01.090Z,9.20
2018-06-01T11:59:05.296Z,5.70
2018-06-01T12:00:09.398Z,8.15
2018-06-01T12:01:13.512Z,9.25
2018-06-01T12:02:17.719Z,6.70
2018-06-01T12:03:22.129Z,7.80
2018-06-01T12:04:26.514Z,7.90
2018-06-01T12:05:30.835Z,6.20
2018-06-01T12:06:35.259Z,7.10
2018-06-01T12:07:39.606Z,6.82
2018-06-01T12:08:44.798Z,10.27
2018-06-01T12:09:49.363Z,8.77
2018-06-01T12:10:53.766Z,6.85
2018-06-01T12:11:59.157Z,9.40
2018-06-01T12:13:03.500Z,9.98
2018-06-01T12:14:08.092Z,7.00
2018-06-01T12:15:12.763Z,8.75
2018-06-01T12:16:17.097Z,8.60
2018-06-01T12:17:21.600Z,14.05
2018-06-01T12:18:26.019Z,10.02
2018-06-01T12:19:30.368Z,8.60
2018-06-01T12:20:35.530Z,9.50
2018-06-01T12:21:39.834Z,7.80
2018-06-01T12:22:44.287Z,11.30
2018-06-01T12:23:48.845Z,8.40
2018-06-01T12:24:53.175Z,8.07
2018-06-01T12:25:57.506Z,7.03
2018-06-01T12:27:01.587Z,10.82
2018-06-01T12:28:05.947Z,9.23
2018-06-01T12:29:10.802Z,6.85
2018-06-01T12:30:14.917Z,9.95
2018-06-01T12:31:19.044Z,7.50
2018-06-01T12:32:23.116Z,8.75
2018-06-01T12:33:27.257Z,8.18
2018-06-01T12:34:31.676Z,7.12
2018-06-01T12:35:36.989Z,9.48
2018-06-01T12:36:41.293Z,8.45
2018-06-01T12:37:45.655Z,9.10
2018-06-01T12:38:49.982Z,7.15
2018-06-01T12:39:54.291Z,6.82
2018-06-01T12:40:59.751Z,6.78
2018-06-01T12:42:04.071Z,7.25
2018-06-01T12:43:08.511Z,8.23
2018-06-01T12:44:13.702Z,6.45
2018-06-01T12:45:18.402Z,16.90
2018-06-01T12:46:23.547Z,21.55
2018-06-01T12:47:28.954Z,34.35
2018-06-01T12:48:33.865Z,11.10
2018-06-01T12:49:39.490Z,19.90
2018-06-01T12:50:44.181Z,12.37
2018-06-01T12:51:49.313Z,8.88
2018-06-01T12:52:54.468Z,6.82
2018-06-01T12:53:58.802Z,6.25
2018-06-01T12:55:02.900Z,7.62
2018-06-01T12:56:06.967Z,6.47
2018-06-01T12:57:11.054Z,6.57
2018-06-01T12:58:15.952Z,8.15
2018-06-01T12:59:20.068Z,8.35
2018-06-01T13:00:24.399Z,7.37
2018-06-01T13:01:28.486Z,7.10
2018-06-01T13:02:33.612Z,7.53
2018-06-01T13:03:38.660Z,8.80
2018-06-01T13:04:42.947Z,8.27
2018-06-01T13:05:48.023Z,7.03
2018-06-01T13:06:52.325Z,9.57
2018-06-01T13:07:56.648Z,7.60
2018-06-01T13:09:00.953Z,7.10
2018-06-01T13:10:06.080Z,5.53
2018-06-01T13:11:10.227Z,10.98
2018-06-01T13:12:15.091Z,9.48
2018-06-01T13:13:19.145Z,6.07
2018-06-01T13:14:23.975Z,9.40
2018-06-01T13:15:28.055Z,7.75
2018-06-01T13:16:32.907Z,8.10
2018-06-01T13:17:36.952Z,11.10
2018-06-01T13:18:45.142Z,8.00
2018-06-01T13:19:49.504Z,10.60
2018-06-01T13:20:53.630Z,6.05
2018-06-01T13:21:58.465Z,7.78
2018-06-01T13:23:04.067Z,8.27
2018-06-01T13:24:08.378Z,14.18
2018-06-01T13:25:12.871Z,6.97
2018-06-01T13:26:18.030Z,9.85
2018-06-01T13:27:22.572Z,8.80
2018-06-01T13:28:26.984Z,8.77
2018-06-01T13:29:31.323Z,7.57
2018-06-01T13:30:36.437Z,14.05
2018-06-01T13:31:40.746Z,12.45
2018-06-01T13:32:44.861Z,6.80
2018-06-01T13:33:49.880Z,8.70
2018-06-01T13:34:54.070Z,7.95
2018-06-01T13:35:58.455Z,10.27
2018-06-01T13:37:02.552Z,8.98
2018-06-01T13:38:06.721Z,10.32
2018-06-01T13:39:10.847Z,9.43
2018-06-01T13:40:14.945Z,13.73
2018-06-01T13:41:19.113Z,12.75
2018-06-01T13:42:24.369Z,7.93
2018-06-01T13:43:28.845Z,7.90
2018-06-01T13:44:32.939Z,9.93
2018-06-01T13:45:37.008Z,9.52
2018-06-01T13:46:41.152Z,9.40
2018-06-01T13:47:45.476Z,8.70
2018-06-01T13:48:50.007Z,9.23
2018-06-01T13:49:54.372Z,11.15
2018-06-01T13:50:58.823Z,8.80
2018-06-01T13:52:03.184Z,8.52
2018-06-01T13:53:08.252Z,8.32
2018-06-01T13:54:12.589Z,8.43
2018-06-01T13:55:16.950Z,8.50
2018-06-01T13:56:22.043Z,11.25